createdAt,value
2019-02-26T00:03:40.118Z,12.37
2019-02-26T00:09:01.301Z,11.20
2019-02-26T00:14:20.325Z,13.57
2019-02-26T00:19:39.412Z,12.43
2019-02-26T00:24:58.246Z,11.13
2019-02-26T00:30:18.644Z,12.18
2019-02-26T00:35:39.329Z,10.97
2019-02-26T00:40:59.488Z,10.97
2019-02-26T00:46:18.051Z,10.30
2019-02-26T00:51:36.715Z,12.93
2019-02-26T00:56:59.071Z,10.78
2019-02-26T01:02:15.631Z,11.80
2019-02-26T01:07:34.241Z,12.35
2019-02-26T01:12:52.856Z,10.70
2019-02-26T01:18:11.470Z,18.03
2019-02-26T01:23:30.367Z,14.97
2019-02-26T01:28:51.149Z,11.97
2019-02-26T01:34:11.557Z,11.12
2019-02-26T01:39:29.670Z,11.47
2019-02-26T01:44:48.214Z,12.33
2019-02-26T01:50:11.112Z,13.10
2019-02-26T01:55:29.777Z,12.73
2019-02-26T02:00:48.315Z,10.00
2019-02-26T02:06:10.638Z,11.03
2019-02-26T02:11:30.611Z,13.33
2019-02-26T02:16:47.572Z,10.70
2019-02-26T02:22:06.266Z,15.07
2019-02-26T02:27:27.491Z,13.17
2019-02-26T02:32:50.417Z,11.73
2019-02-26T02:38:05.664Z,12.60
2019-02-26T02:43:24.294Z,11.90
2019-02-26T02:48:42.871Z,12.40
2019-02-26T02:54:01.406Z,12.73
2019-02-26T02:59:20.145Z,10.00
2019-02-26T03:04:38.705Z,14.00
2019-02-26T03:09:58.020Z,13.50
2019-02-26T03:15:21.189Z,12.80
2019-02-26T03:20:40.413Z,13.60
2019-02-26T03:25:59.039Z,12.80
2019-02-26T03:31:17.653Z,10.83
2019-02-26T03:36:40.824Z,11.57
2019-02-26T03:41:58.863Z,9.53
2019-02-26T03:47:18.860Z,13.03
2019-02-26T03:52:37.924Z,15.17
2019-02-26T03:57:59.127Z,11.13
2019-02-26T04:03:17.574Z,13.23
2019-02-26T04:08:36.531Z,14.33
2019-02-26T04:13:56.662Z,11.70
2019-02-26T04:19:15.405Z,12.57
2019-02-26T04:24:37.401Z,10.80
2019-02-26T04:29:57.280Z,13.17
2019-02-26T04:35:19.093Z,13.70
2019-02-26T04:40:43.184Z,13.13
2019-02-26T04:46:14.000Z,15.97
2019-02-26T04:51:34.271Z,14.87
2019-02-26T04:56:52.914Z,12.73
2019-02-26T05:02:11.538Z,17.23
2019-02-26T05:07:30.091Z,10.47
2019-02-26T05:12:48.563Z,15.83
2019-02-26T05:18:07.063Z,13.20
2019-02-26T05:23:26.402Z,14.40
2019-02-26T05:28:47.068Z,14.57
2019-02-26T05:34:07.334Z,16.87
2019-02-26T05:39:28.687Z,17.97
2019-02-26T05:44:46.205Z,14.57
2019-02-26T05:50:12.401Z,14.57
2019-02-26T05:55:28.295Z,13.27
2019-02-26T06:00:47.764Z,16.73
2019-02-26T06:06:06.255Z,15.67
2019-02-26T06:11:28.330Z,16.83
2019-02-26T06:16:46.372Z,17.20
2019-02-26T06:22:05.510Z,18.07
2019-02-26T06:27:25.129Z,24.65
2019-02-26T06:32:46.029Z,25.57
2019-02-26T06:38:09.321Z,22.07
2019-02-26T06:43:30.809Z,18.87
2019-02-26T06:48:49.059Z,16.10
2019-02-26T06:54:07.597Z,20.87
2019-02-26T06:59:32.477Z,17.42
2019-02-26T07:04:50.693Z,21.70
2019-02-26T07:10:18.358Z,17.45
2019-02-26T07:15:35.840Z,22.47
2019-02-26T07:20:55.962Z,22.17
2019-02-26T07:26:16.074Z,19.57
2019-02-26T07:31:35.516Z,14.67
2019-02-26T07:36:54.139Z,15.67
2019-02-26T07:42:14.682Z,13.70
2019-02-26T07:47:35.752Z,15.90
2019-02-26T07:52:55.257Z,17.50
2019-02-26T07:58:15.469Z,10.67
2019-02-26T08:03:33.977Z,13.47
2019-02-26T08:08:52.456Z,16.17
2019-02-26T08:14:11.101Z,12.13
2019-02-26T08:19:29.965Z,9.63
2019-02-26T08:24:50.461Z,11.77
2019-02-26T08:30:18.612Z,13.13
2019-02-26T08:35:36.882Z,10.57
2019-02-26T08:40:55.506Z,15.07
2019-02-26T08:46:16.573Z,11.33
2019-02-26T08:51:34.813Z,12.28
2019-02-26T08:56:53.364Z,15.40
2019-02-26T09:02:12.282Z,15.60
2019-02-26T09:07:30.851Z,18.30
2019-02-26T09:12:51.688Z,20.03
2019-02-26T09:18:09.696Z,21.13
2019-02-26T09:23:30.452Z,19.77
2019-02-26T09:28:50.089Z,19.33
2019-02-26T09:34:08.993Z,17.87
2019-02-26T09:39:29.273Z,16.87
2019-02-26T09:44:48.143Z,27.00
2019-02-26T09:50:12.928Z,17.00
2019-02-26T09:55:31.515Z,15.97
2019-02-26T10:00:51.130Z,19.27
2019-02-26T10:06:11.357Z,15.53
2019-02-26T10:11:30.754Z,13.70
2019-02-26T10:16:51.789Z,15.53
2019-02-26T10:22:13.508Z,13.57
2019-02-26T10:27:33.605Z,17.60
2019-02-26T10:32:50.804Z,22.33
2019-02-26T10:38:11.408Z,18.33
2019-02-26T10:43:29.787Z,21.33
2019-02-26T10:48:50.319Z,19.20
2019-02-26T10:54:12.183Z,21.03
2019-02-26T10:59:29.065Z,23.60
2019-02-26T11:04:52.105Z,20.40
2019-02-26T11:10:11.963Z,21.50
2019-02-26T11:15:33.927Z,17.70
2019-02-26T11:20:55.211Z,20.37
2019-02-26T11:26:13.173Z,18.10
2019-02-26T11:31:32.207Z,20.17
2019-02-26T11:36:50.843Z,17.20
2019-02-26T11:42:10.492Z,18.50
2019-02-26T11:47:29.105Z,18.73
2019-02-26T11:52:51.628Z,14.63
2019-02-26T11:58:10.817Z,20.47
2019-02-26T12:03:31.150Z,16.17
2019-02-26T12:08:50.052Z,16.20
2019-02-26T12:14:10.745Z,16.77
2019-02-26T12:19:31.175Z,16.70
2019-02-26T12:24:55.974Z,16.47
2019-02-26T12:30:20.678Z,17.62
2019-02-26T12:35:43.535Z,23.40
2019-02-26T12:41:01.483Z,21.17
2019-02-26T12:46:21.739Z,22.20
2019-02-26T12:51:40.413Z,13.37
2019-02-26T12:57:00.642Z,14.03
2019-02-26T13:02:20.643Z,13.93
2019-02-26T13:07:39.658Z,20.37
2019-02-26T13:13:01.438Z,18.03
2019-02-26T13:18:18.484Z,14.73
2019-02-26T13:23:37.042Z,12.13
2019-02-26T13:29:00.121Z,15.23
2019-02-26T13:34:16.021Z,10.07
2019-02-26T13:39:38.568Z,9.80
2019-02-26T13:44:54.970Z,10.07
2019-02-26T13:50:22.423Z,12.50
2019-02-26T13:55:41.043Z,11.90
2019-02-26T14:00:59.614Z,11.50
2019-02-26T14:06:18.567Z,10.67
2019-02-26T14:11:37.164Z,10.15
2019-02-26T14:16:55.709Z,7.13
2019-02-26T14:22:14.243Z,11.27
2019-02-26T14:27:32.749Z,9.03
2019-02-26T14:32:51.443Z,12.03
2019-02-26T14:38:09.981Z,10.13
2019-02-26T14:43:28.542Z,8.97
2019-02-26T14:48:50.211Z,18.27
2019-02-26T14:54:08.823Z,9.03
2019-02-26T14:59:27.399Z,9.17
2019-02-26T15:04:46.255Z,11.70
2019-02-26T15:10:07.683Z,5.50
2019-02-26T15:15:28.108Z,7.10
2019-02-26T15:20:46.727Z,6.00
2019-02-26T15:26:05.364Z,9.47
2019-02-26T15:31:23.907Z,6.37
2019-02-26T15:36:46.707Z,10.10
2019-02-26T15:42:05.395Z,13.53
2019-02-26T15:47:24.119Z,12.83
2019-02-26T15:52:42.743Z,9.63
2019-02-26T15:58:04.349Z,14.27
2019-02-26T16:03:22.183Z,8.90
2019-02-26T16:08:41.276Z,9.77
2019-02-26T16:14:01.256Z,14.20
2019-02-26T16:19:19.851Z,13.90
2019-02-26T16:24:38.631Z,11.63
2019-02-26T16:29:57.278Z,9.53
2019-02-26T16:35:17.490Z,11.22
2019-02-26T16:40:38.294Z,8.03
2019-02-26T16:45:57.091Z,13.17
2019-02-26T16:51:16.625Z,6.27
2019-02-26T16:56:37.512Z,7.27
2019-02-26T17:01:56.233Z,10.33
2019-02-26T17:07:14.846Z,14.13
2019-02-26T17:12:33.562Z,9.80
2019-02-26T17:17:52.402Z,18.17
2019-02-26T17:23:13.556Z,21.50
2019-02-26T17:28:31.965Z,13.10
2019-02-26T17:33:50.608Z,13.47
2019-02-26T17:39:09.512Z,18.00
2019-02-26T17:44:28.064Z,14.73
2019-02-26T17:49:46.619Z,22.37
2019-02-26T17:55:09.492Z,23.40
2019-02-26T18:00:29.672Z,23.00
2019-02-26T18:05:51.478Z,19.63
2019-02-26T18:11:08.621Z,21.43
2019-02-26T18:16:27.454Z,17.07
2019-02-26T18:22:13.189Z,16.77
2019-02-26T18:27:31.723Z,18.57
2019-02-26T18:32:53.184Z,18.17
2019-02-26T18:38:10.883Z,17.73
2019-02-26T18:43:29.679Z,26.37
2019-02-26T18:48:48.704Z,20.80
2019-02-26T18:54:07.770Z,18.93
2019-02-26T18:59:26.326Z,22.17
2019-02-26T19:04:48.267Z,22.30
2019-02-26T19:10:08.709Z,15.13
2019-02-26T19:15:32.362Z,16.10
2019-02-26T19:20:50.906Z,20.37
2019-02-26T19:26:13.488Z,16.97
2019-02-26T19:31:32.888Z,21.13
2019-02-26T19:36:51.459Z,17.80
2019-02-26T19:42:10.080Z,18.63
2019-02-26T19:47:33.673Z,22.97
2019-02-26T19:52:57.047Z,21.20
2019-02-26T19:58:12.767Z,24.13
2019-02-26T20:03:39.544Z,21.63
2019-02-26T20:08:51.805Z,22.33
2019-02-26T20:14:11.566Z,26.33
2019-02-26T20:19:31.933Z,25.33
2019-02-26T20:24:50.984Z,23.67
2019-02-26T20:30:12.398Z,22.60
2019-02-26T20:35:31.835Z,23.57
2019-02-26T20:40:50.449Z,19.17
2019-02-26T20:46:09.068Z,16.50
2019-02-26T20:51:27.722Z,22.00
2019-02-26T20:56:46.547Z,22.22
2019-02-26T21:02:05.469Z,19.17
2019-02-26T21:07:27.204Z,19.27
2019-02-26T21:12:45.941Z,19.20
2019-02-26T21:18:04.610Z,21.27
2019-02-26T21:23:27.481Z,20.32
2019-02-26T21:28:43.839Z,26.33
2019-02-26T21:34:03.879Z,19.83
2019-02-26T21:39:22.760Z,21.87
2019-02-26T21:44:41.855Z,21.50
2019-02-26T21:50:01.234Z,29.13
2019-02-26T21:55:19.784Z,22.05
2019-02-26T22:00:39.001Z,26.50
2019-02-26T22:06:05.030Z,25.13
2019-02-26T22:11:20.192Z,26.20
2019-02-26T22:16:43.072Z,25.27
2019-02-26T22:22:00.966Z,19.77
2019-02-26T22:27:19.704Z,20.80
2019-02-26T22:32:43.445Z,20.37
2019-02-26T22:38:02.231Z,16.83
2019-02-26T22:43:20.784Z,21.50
2019-02-26T22:48:39.781Z,17.53
2019-02-26T22:53:58.334Z,15.53
2019-02-26T22:59:17.036Z,20.17
2019-02-26T23:04:35.677Z,21.17
2019-02-26T23:09:54.282Z,21.57
2019-02-26T23:15:13.205Z,17.62
2019-02-26T23:20:32.074Z,17.27
2019-02-26T23:25:50.691Z,21.17
2019-02-26T23:31:09.366Z,17.57
2019-02-26T23:36:28.604Z,16.80
2019-02-26T23:41:47.282Z,22.10
2019-02-26T23:47:05.988Z,17.70
2019-02-26T23:52:24.969Z,16.77
2019-02-26T23:57:44.814Z,15.40
